Time;durP1;ratioP1;P1;durP2;ratioP2;P2;SDS_P1;SDS_P2;PMS_P1;PMS_P2;Temp;Humidity;BMP_temperature;BMP_pressure;BME280_temperature;BME280_humidity;BME280_pressure;Samples;Min_cycle;Max_cycle;Signal;HPM_P1;HPM_P2
2023/06/26 00:02:16;;;;;;;11.27;10.43;;;19.90;72.60;;;;;;6261623;28;20243;-83
2023/06/26 00:05:20;;;;;;;11.97;11.07;;;19.90;72.50;;;;;;6235886;28;20253;-82
2023/06/26 00:08:23;;;;;;;11.57;10.77;;;19.90;72.60;;;;;;6250515;28;20830;-83
2023/06/26 00:11:30;;;;;;;11.33;10.53;;;19.90;72.60;;;;;;6265014;28;20248;-82
2023/06/26 00:14:34;;;;;;;12.60;11.63;;;19.90;72.60;;;;;;6256031;28;20873;-82
2023/06/26 00:17:39;;;;;;;12.10;11.20;;;19.80;72.60;;;;;;6269307;28;20305;-82
2023/06/26 00:20:43;;;;;;;11.80;10.80;;;19.80;72.80;;;;;;6257614;28;20234;-82
2023/06/26 00:23:46;;;;;;;9.97;9.37;;;19.80;73.00;;;;;;6265297;28;20748;-83
2023/06/26 00:26:51;;;;;;;11.90;11.03;;;19.80;73.10;;;;;;6263766;28;20245;-81
2023/06/26 00:29:54;;;;;;;11.00;10.30;;;19.70;73.20;;;;;;6263499;28;20274;-81
2023/06/26 00:32:57;;;;;;;11.03;10.33;;;19.70;73.30;;;;;;6252365;28;20864;-83
2023/06/26 00:36:01;;;;;;;11.63;10.73;;;19.70;73.30;;;;;;6262759;28;20236;-80
2023/06/26 00:39:05;;;;;;;10.93;10.23;;;19.70;73.40;;;;;;6262554;28;20225;-82
2023/06/26 00:42:10;;;;;;;10.87;10.20;;;19.70;73.50;;;;;;6259587;28;20313;-81
2023/06/26 00:45:13;;;;;;;11.07;10.27;;;19.70;73.60;;;;;;6259907;28;20479;-83
2023/06/26 00:48:16;;;;;;;11.20;10.43;;;19.70;73.60;;;;;;6262798;28;20316;-81
2023/06/26 00:51:20;;;;;;;10.60;9.90;;;19.70;73.60;;;;;;6260002;28;20299;-81
2023/06/26 00:54:23;;;;;;;12.73;11.73;;;19.70;73.80;;;;;;6266530;28;20329;-81
2023/06/26 00:57:28;;;;;;;12.80;11.70;;;19.70;74.00;;;;;;6267353;28;20237;-83
2023/06/26 01:00:31;;;;;;;11.33;10.53;;;19.70;74.10;;;;;;6270948;28;20238;-83
2023/06/26 01:03:34;;;;;;;13.03;12.13;;;19.70;74.20;;;;;;6257880;28;20821;-81
2023/06/26 01:06:38;;;;;;;12.00;11.20;;;19.70;74.30;;;;;;6269836;28;20289;-84
2023/06/26 01:09:42;;;;;;;12.80;11.87;;;19.70;74.30;;;;;;6240559;28;20238;-82
2023/06/26 01:12:46;;;;;;;12.80;11.93;;;19.70;74.40;;;;;;6266616;28;20737;-82
2023/06/26 01:15:50;;;;;;;12.07;11.27;;;19.80;74.50;;;;;;6256903;28;20321;-82
2023/06/26 01:18:53;;;;;;;12.60;11.70;;;19.90;74.50;;;;;;6266472;28;20241;-82
2023/06/26 01:22:04;;;;;;;12.80;11.90;;;19.90;74.40;;;;;;6257726;28;20237;-83
2023/06/26 01:25:17;;;;;;;12.20;11.40;;;19.90;74.40;;;;;;6265557;28;20686;-82
2023/06/26 01:28:24;;;;;;;13.30;11.97;;;19.90;74.30;;;;;;6265016;28;20242;-81
2023/06/26 01:31:30;;;;;;;11.47;10.77;;;19.90;74.30;;;;;;6232743;28;20245;-81
2023/06/26 01:34:33;;;;;;;12.80;11.90;;;19.90;74.30;;;;;;6235262;28;20242;-81
2023/06/26 01:37:36;;;;;;;12.47;11.57;;;19.90;74.20;;;;;;6224263;28;20281;-82
2023/06/26 01:40:40;;;;;;;11.70;10.83;;;19.90;74.30;;;;;;6239921;28;20226;-81
2023/06/26 01:44:05;;;;;;;10.90;10.20;;;19.90;74.20;;;;;;6230837;28;20235;-82
2023/06/26 01:47:10;;;;;;;11.63;10.83;;;19.90;74.30;;;;;;6225319;28;20318;-82
2023/06/26 01:50:18;;;;;;;11.67;10.87;;;19.80;74.30;;;;;;6224496;28;20239;-81
2023/06/26 01:53:26;;;;;;;11.30;10.60;;;19.80;74.30;;;;;;6235180;28;20269;-82
2023/06/26 01:56:30;;;;;;;12.00;11.00;;;19.80;74.40;;;;;;6234691;28;20239;-82
2023/06/26 01:59:35;;;;;;;11.20;10.40;;;19.80;74.50;;;;;;6225556;28;20321;-82
2023/06/26 02:02:39;;;;;;;13.07;12.07;;;19.70;74.60;;;;;;6230960;28;20247;-81
2023/06/26 02:05:42;;;;;;;12.97;11.80;;;19.70;74.60;;;;;;6227999;28;20295;-83
2023/06/26 02:08:45;;;;;;;14.87;13.87;;;19.70;74.60;;;;;;6212773;28;20238;-83
2023/06/26 02:11:48;;;;;;;14.23;13.17;;;19.70;74.80;;;;;;6222823;28;20393;-82
2023/06/26 02:14:53;;;;;;;11.80;11.10;;;19.70;74.90;;;;;;6231183;28;20242;-81
2023/06/26 02:17:56;;;;;;;12.83;11.90;;;19.70;74.90;;;;;;6226142;28;20238;-81
2023/06/26 02:21:00;;;;;;;12.03;11.23;;;19.70;74.90;;;;;;6223317;28;20239;-83
2023/06/26 02:24:03;;;;;;;12.63;11.73;;;19.70;74.90;;;;;;6221807;28;20727;-82
2023/06/26 02:27:06;;;;;;;12.63;11.67;;;19.70;74.90;;;;;;6232196;28;20238;-83
2023/06/26 02:30:12;;;;;;;12.87;11.97;;;19.70;75.10;;;;;;6235294;28;20231;-83
2023/06/26 02:33:18;;;;;;;14.60;13.40;;;19.70;75.20;;;;;;6238845;28;20745;-81
2023/06/26 02:36:22;;;;;;;15.57;14.37;;;19.70;75.40;;;;;;6236043;28;20236;-81
2023/06/26 02:39:25;;;;;;;16.50;15.17;;;19.70;75.50;;;;;;6225805;28;20289;-81
2023/06/26 02:42:29;;;;;;;14.93;13.83;;;19.70;75.60;;;;;;6238681;28;20242;-84
2023/06/26 02:45:33;;;;;;;15.27;14.17;;;19.70;75.60;;;;;;6226000;28;20857;-82
2023/06/26 02:48:44;;;;;;;15.17;14.07;;;19.70;75.60;;;;;;6231828;28;20314;-83
2023/06/26 02:51:47;;;;;;;14.40;13.47;;;19.60;75.50;;;;;;6224630;28;20330;-83
2023/06/26 02:54:50;;;;;;;14.57;13.53;;;19.60;75.50;;;;;;6223443;28;20293;-83
2023/06/26 02:57:53;;;;;;;14.47;13.37;;;19.60;75.50;;;;;;6231681;28;20373;-83
2023/06/26 03:00:58;;;;;;;14.53;13.33;;;19.60;75.50;;;;;;6238966;28;20227;-83
2023/06/26 03:04:02;;;;;;;15.13;13.93;;;19.60;75.50;;;;;;6226740;28;20236;-84
2023/06/26 03:07:05;;;;;;;14.67;13.37;;;19.50;75.50;;;;;;6219066;28;20285;-82
2023/06/26 03:10:09;;;;;;;15.17;13.90;;;19.50;75.60;;;;;;6238963;28;20238;-84
2023/06/26 03:13:12;;;;;;;13.97;12.97;;;19.50;75.70;;;;;;6254902;28;20264;-82
2023/06/26 03:16:17;;;;;;;13.50;12.50;;;19.50;75.70;;;;;;6263791;28;20312;-83
2023/06/26 03:19:20;;;;;;;14.00;13.00;;;19.40;75.70;;;;;;6261273;28;20234;-82
2023/06/26 03:22:23;;;;;;;15.87;14.57;;;19.40;75.60;;;;;;6255702;28;20242;-83
2023/06/26 03:25:27;;;;;;;14.53;13.30;;;19.40;75.70;;;;;;6266076;28;20248;-84
2023/06/26 03:28:31;;;;;;;13.50;12.50;;;19.40;75.70;;;;;;6269358;28;20235;-84
2023/06/26 03:31:35;;;;;;;15.53;14.37;;;19.30;75.70;;;;;;6261643;28;20261;-83
2023/06/26 03:34:42;;;;;;;16.67;15.17;;;19.30;75.80;;;;;;6253790;28;20242;-83
2023/06/26 03:37:45;;;;;;;15.03;13.67;;;19.30;75.90;;;;;;6243472;28;20745;-85
2023/06/26 03:40:52;;;;;;;16.90;15.67;;;19.30;76.00;;;;;;6262417;28;20317;-85
2023/06/26 03:44:00;;;;;;;17.73;16.23;;;19.30;76.00;;;;;;6219465;28;20247;-83
2023/06/26 03:47:07;;;;;;;17.00;15.70;;;19.30;76.10;;;;;;6227203;28;20243;-85
2023/06/26 03:50:12;;;;;;;18.57;16.93;;;19.30;76.20;;;;;;6249797;28;20233;-84
2023/06/26 03:53:19;;;;;;;17.07;15.77;;;19.40;76.20;;;;;;6243070;28;20247;-84
2023/06/26 03:56:35;;;;;;;17.07;15.67;;;19.40;76.10;;;;;;6258225;28;20333;-83
2023/06/26 04:00:11;;;;;;;19.83;18.03;;;19.50;76.00;;;;;;6219158;28;20234;-85
2023/06/26 04:03:17;;;;;;;17.13;15.73;;;19.50;75.90;;;;;;6241388;28;20781;-86
2023/06/26 04:06:21;;;;;;;15.20;14.00;;;19.60;75.70;;;;;;6234851;28;20242;-86
2023/06/26 04:09:25;;;;;;;18.10;16.60;;;19.70;75.60;;;;;;6245307;28;20241;-83
2023/06/26 04:12:28;;;;;;;16.13;14.93;;;19.90;75.40;;;;;;6249263;28;20258;-87
2023/06/26 04:15:32;;;;;;;15.00;13.90;;;19.90;75.30;;;;;;6251468;28;20745;-84
2023/06/26 04:18:37;;;;;;;18.30;16.80;;;20.00;75.10;;;;;;6261039;28;20721;-83
2023/06/26 04:21:41;;;;;;;16.30;15.07;;;20.10;74.60;;;;;;6255531;28;20257;-83
2023/06/26 04:24:45;;;;;;;16.37;15.10;;;20.20;74.50;;;;;;6253245;28;20265;-85
2023/06/26 04:27:49;;;;;;;19.43;17.70;;;20.30;74.20;;;;;;6256782;28;20276;-83
2023/06/26 04:30:53;;;;;;;14.77;13.73;;;20.30;73.60;;;;;;6267423;28;20241;-85
2023/06/26 04:33:59;;;;;;;16.33;14.97;;;20.30;73.70;;;;;;6259001;28;20227;-84
2023/06/26 04:37:04;;;;;;;17.73;16.13;;;20.50;73.50;;;;;;6249324;28;20249;-84
2023/06/26 04:40:10;;;;;;;16.00;14.70;;;20.50;73.20;;;;;;6245470;28;20907;-83
2023/06/26 04:43:13;;;;;;;18.23;16.80;;;20.60;73.00;;;;;;6260717;28;20284;-82
2023/06/26 04:46:17;;;;;;;15.43;14.27;;;20.60;72.70;;;;;;6263851;28;20233;-84
2023/06/26 04:49:21;;;;;;;17.47;15.87;;;20.60;72.70;;;;;;6248233;28;20249;-86
2023/06/26 04:52:24;;;;;;;19.57;17.80;;;20.60;72.60;;;;;;6247940;28;20292;-84
2023/06/26 04:55:28;;;;;;;17.33;15.87;;;20.60;72.10;;;;;;6251213;28;20879;-83
2023/06/26 04:58:31;;;;;;;15.90;14.50;;;20.70;72.20;;;;;;6267383;28;20238;-86
2023/06/26 05:01:34;;;;;;;16.13;14.93;;;20.80;72.20;;;;;;6258465;28;20237;-85
2023/06/26 05:04:42;;;;;;;16.07;14.63;;;20.90;72.20;;;;;;6262916;28;20233;-84
2023/06/26 05:07:45;;;;;;;20.60;18.70;;;21.10;72.20;;;;;;6233846;28;20239;-85
2023/06/26 05:10:48;;;;;;;16.27;14.97;;;21.30;71.50;;;;;;6234105;28;20430;-85
2023/06/26 05:13:51;;;;;;;17.53;16.03;;;21.50;70.40;;;;;;6229495;28;20763;-84
2023/06/26 05:16:54;;;;;;;16.07;14.57;;;21.70;69.90;;;;;;6238242;28;20317;-83
2023/06/26 05:19:59;;;;;;;16.83;15.50;;;21.90;69.10;;;;;;6232061;28;20235;-84
2023/06/26 05:23:02;;;;;;;19.30;14.50;;;22.10;68.60;;;;;;6237275;28;20250;-86
2023/06/26 05:26:06;;;;;;;15.87;14.47;;;22.10;68.00;;;;;;6242197;28;20629;-77
2023/06/26 05:29:10;;;;;;;15.03;13.97;;;22.30;67.50;;;;;;6238225;28;20270;-78
2023/06/26 05:32:18;;;;;;;15.20;13.90;;;22.50;67.30;;;;;;6247569;28;20281;-75
2023/06/26 05:35:24;;;;;;;15.53;13.93;;;22.50;66.60;;;;;;6269774;28;20250;-78
2023/06/26 05:38:27;;;;;;;16.20;13.63;;;22.50;66.60;;;;;;6268137;28;20234;-78
2023/06/26 05:41:31;;;;;;;18.27;16.77;;;22.60;66.80;;;;;;6233319;28;20365;-85
2023/06/26 05:44:35;;;;;;;17.00;15.63;;;22.60;66.60;;;;;;6243161;28;20233;-81
2023/06/26 05:47:38;;;;;;;16.47;14.97;;;22.60;66.90;;;;;;6241788;28;20309;-81
2023/06/26 05:50:43;;;;;;;16.17;14.77;;;22.50;67.00;;;;;;6253368;28;20233;-80
2023/06/26 05:53:47;;;;;;;16.20;14.53;;;22.50;67.20;;;;;;6248503;28;20234;-81
2023/06/26 05:56:53;;;;;;;14.47;13.27;;;22.60;66.90;;;;;;6255295;28;20289;-80
2023/06/26 05:59:57;;;;;;;15.20;13.00;;;22.90;66.70;;;;;;6259012;28;20386;-80
2023/06/26 06:03:00;;;;;;;15.20;13.63;;;23.40;66.20;;;;;;6252544;28;20253;-80
2023/06/26 06:06:05;;;;;;;16.13;14.57;;;24.00;65.10;;;;;;6266516;28;20295;-80
2023/06/26 06:09:10;;;;;;;14.03;12.93;;;24.40;62.60;;;;;;6248718;28;20233;-80
2023/06/26 06:12:14;;;;;;;13.97;12.70;;;24.60;61.60;;;;;;6261476;28;20246;-80
2023/06/26 06:15:17;;;;;;;12.57;11.67;;;25.00;61.20;;;;;;6261378;28;20807;-80
2023/06/26 06:18:20;;;;;;;13.50;12.33;;;25.50;60.10;;;;;;6259014;28;20262;-79
2023/06/26 06:21:25;;;;;;;14.57;13.10;;;25.80;59.00;;;;;;6257539;28;20234;-80
2023/06/26 06:24:28;;;;;;;13.20;11.90;;;26.20;58.40;;;;;;6257174;28;20234;-81
2023/06/26 06:27:31;;;;;;;13.20;12.03;;;26.10;56.90;;;;;;6256895;28;20226;-79
2023/06/26 06:30:35;;;;;;;11.73;10.63;;;26.30;57.10;;;;;;6260474;28;20250;-78
2023/06/26 06:33:47;;;;;;;13.17;10.50;;;26.40;55.80;;;;;;6262570;28;20230;-80
2023/06/26 06:36:52;;;;;;;10.83;10.03;;;26.40;55.30;;;;;;6268603;28;20268;-80
2023/06/26 06:39:55;;;;;;;10.63;9.90;;;26.30;55.70;;;;;;6248038;28;20321;-78
2023/06/26 06:42:58;;;;;;;12.10;11.20;;;26.10;55.60;;;;;;6253220;28;20274;-79
2023/06/26 06:46:01;;;;;;;11.43;10.37;;;26.00;56.10;;;;;;6239043;28;20234;-82
2023/06/26 06:49:07;;;;;;;8.77;8.17;;;26.20;56.90;;;;;;6231212;28;20239;-78
2023/06/26 06:52:11;;;;;;;11.00;10.10;;;26.80;56.20;;;;;;6232787;28;20238;-79
2023/06/26 06:55:14;;;;;;;12.60;9.30;;;27.00;55.20;;;;;;6234898;28;20372;-78
2023/06/26 06:58:18;;;;;;;9.97;9.27;;;27.20;54.70;;;;;;6225695;28;20238;-81
2023/06/26 07:01:22;;;;;;;11.47;10.33;;;27.70;54.80;;;;;;6237683;28;20281;-80
2023/06/26 07:04:27;;;;;;;10.20;9.37;;;27.70;53.60;;;;;;6231995;28;20230;-79
2023/06/26 07:07:33;;;;;;;12.53;8.40;;;27.70;53.80;;;;;;6233647;28;20281;-79
2023/06/26 07:10:36;;;;;;;8.57;8.10;;;27.70;52.50;;;;;;6234139;28;20226;-78
2023/06/26 07:13:40;;;;;;;9.50;9.00;;;27.40;53.90;;;;;;6234803;28;20337;-79
2023/06/26 07:16:44;;;;;;;9.53;8.80;;;27.40;53.70;;;;;;6239694;28;20833;-79
2023/06/26 07:19:47;;;;;;;9.37;8.33;;;27.30;54.60;;;;;;6231705;28;20246;-80
2023/06/26 07:22:53;;;;;;;9.23;8.53;;;27.60;53.20;;;;;;6238800;28;20238;-79
2023/06/26 07:25:56;;;;;;;10.30;9.07;;;27.50;52.90;;;;;;6228350;28;20250;-80
2023/06/26 07:29:00;;;;;;;9.13;8.60;;;27.50;54.50;;;;;;6226686;28;20389;-79
2023/06/26 07:32:03;;;;;;;9.53;8.87;;;27.70;54.30;;;;;;6234983;28;20255;-79
2023/06/26 07:35:08;;;;;;;8.27;7.67;;;27.90;54.10;;;;;;6237455;28;20847;-80
2023/06/26 07:38:13;;;;;;;9.27;8.77;;;27.80;52.80;;;;;;6211606;28;20227;-80
2023/06/26 07:41:16;;;;;;;8.93;8.43;;;27.70;53.10;;;;;;6238120;28;20642;-79
2023/06/26 07:44:19;;;;;;;7.33;6.93;;;27.50;54.20;;;;;;6234232;28;20245;-80
2023/06/26 07:47:22;;;;;;;8.60;7.80;;;27.70;54.00;;;;;;6223529;28;20349;-80
2023/06/26 07:50:26;;;;;;;8.97;8.47;;;27.80;53.80;;;;;;6225792;28;20317;-81
2023/06/26 07:53:30;;;;;;;8.13;7.57;;;27.40;53.00;;;;;;6231293;28;20762;-79
2023/06/26 07:56:53;;;;;;;9.20;8.33;;;27.50;52.70;;;;;;6225010;28;20231;-78
2023/06/26 07:59:56;;;;;;;7.80;7.23;;;27.40;52.70;;;;;;6234070;28;20235;-78
2023/06/26 08:02:59;;;;;;;8.23;7.73;;;27.20;52.30;;;;;;6220431;28;20246;-78
2023/06/26 08:06:03;;;;;;;7.90;7.10;;;27.00;53.10;;;;;;6238614;28;20239;-78
2023/06/26 08:09:08;;;;;;;8.03;7.57;;;27.00;53.60;;;;;;6238313;28;20254;-80
2023/06/26 08:12:11;;;;;;;6.73;6.27;;;27.10;53.70;;;;;;6236853;28;20337;-80
2023/06/26 08:15:15;;;;;;;7.40;7.00;;;26.80;53.00;;;;;;6229491;28;20764;-79
2023/06/26 08:18:19;;;;;;;7.43;6.93;;;26.90;52.70;;;;;;6233668;28;20265;-79
2023/06/26 08:21:24;;;;;;;6.40;5.97;;;26.90;52.40;;;;;;6224039;28;20378;-80
2023/06/26 08:24:29;;;;;;;6.93;6.53;;;26.80;51.90;;;;;;6233516;28;20239;-79
2023/06/26 08:27:33;;;;;;;7.03;6.37;;;26.90;51.50;;;;;;6236428;28;20239;-79
2023/06/26 08:30:36;;;;;;;6.60;6.20;;;26.80;52.30;;;;;;6221124;28;20250;-79
2023/06/26 08:33:40;;;;;;;6.70;6.17;;;26.80;52.00;;;;;;6234689;28;20809;-79
2023/06/26 08:36:44;;;;;;;6.63;6.27;;;26.90;51.10;;;;;;6231504;28;20258;-78
2023/06/26 08:39:49;;;;;;;6.23;5.73;;;27.00;51.50;;;;;;6229057;28;20238;-79
2023/06/26 08:42:53;;;;;;;6.37;6.07;;;27.20;51.40;;;;;;6233082;28;20725;-80
2023/06/26 08:45:57;;;;;;;6.17;5.97;;;27.50;51.70;;;;;;6219130;28;20251;-79
2023/06/26 08:49:02;;;;;;;6.20;6.00;;;27.80;49.50;;;;;;6223754;28;20231;-79
2023/06/26 08:52:14;;;;;;;6.20;5.80;;;28.00;49.80;;;;;;6226207;28;20242;-79
2023/06/26 08:55:23;;;;;;;6.20;5.90;;;28.00;49.40;;;;;;6239085;28;20777;-80
2023/06/26 08:58:27;;;;;;;5.63;5.13;;;28.30;48.90;;;;;;6233831;28;20253;-78
2023/06/26 09:01:32;;;;;;;6.43;6.00;;;28.50;48.90;;;;;;6233904;28;20250;-79
2023/06/26 09:04:36;;;;;;;6.63;6.10;;;28.50;48.70;;;;;;6233401;28;20235;-78
2023/06/26 09:07:39;;;;;;;5.43;5.03;;;28.60;48.20;;;;;;6229091;28;20278;-79
2023/06/26 09:10:44;;;;;;;5.47;5.27;;;28.70;47.40;;;;;;6230977;28;20777;-79
2023/06/26 09:13:49;;;;;;;8.27;4.90;;;28.90;48.70;;;;;;6262984;28;20623;-79
2023/06/26 09:16:52;;;;;;;5.40;5.27;;;28.80;47.00;;;;;;6263471;28;20245;-77
2023/06/26 09:19:56;;;;;;;5.45;5.13;;;28.90;48.50;;;;;;6250303;28;20242;-79
2023/06/26 09:23:01;;;;;;;5.47;5.07;;;29.00;47.90;;;;;;6237650;28;20353;-78
2023/06/26 09:26:06;;;;;;;6.22;5.72;;;29.10;47.50;;;;;;6256459;28;20237;-80
2023/06/26 09:29:11;;;;;;;6.25;6.05;;;29.10;47.40;;;;;;6255559;28;20250;-79
2023/06/26 09:32:15;;;;;;;6.00;5.80;;;29.20;46.80;;;;;;6258922;28;20652;-82
2023/06/26 09:35:18;;;;;;;6.20;6.00;;;29.10;47.80;;;;;;6261222;28;20636;-78
2023/06/26 09:38:22;;;;;;;6.93;6.00;;;29.10;47.50;;;;;;6225974;28;20329;-79
2023/06/26 09:41:27;;;;;;;5.57;5.38;;;29.10;47.50;;;;;;6231955;28;20292;-75
2023/06/26 09:44:34;;;;;;;5.75;5.55;;;29.20;47.00;;;;;;6239194;28;20267;-78
2023/06/26 09:47:37;;;;;;;5.43;5.22;;;29.10;46.90;;;;;;6217010;28;20238;-77
2023/06/26 09:50:43;;;;;;;6.93;6.53;;;29.10;47.50;;;;;;6228772;28;20312;-76
2023/06/26 09:54:07;;;;;;;5.82;5.63;;;29.20;47.90;;;;;;6228981;28;20304;-76
2023/06/26 09:57:13;;;;;;;6.63;6.20;;;29.20;48.00;;;;;;6231701;28;20239;-78
2023/06/26 10:00:17;;;;;;;6.97;6.68;;;29.30;48.60;;;;;;6233334;28;20876;-76
2023/06/26 10:03:20;;;;;;;6.15;5.85;;;29.00;47.40;;;;;;6237251;28;20619;-78
2023/06/26 10:06:28;;;;;;;6.78;6.28;;;29.00;48.00;;;;;;6234740;28;20247;-76
2023/06/26 10:09:32;;;;;;;6.05;5.68;;;29.20;48.90;;;;;;6226350;28;20242;-78
2023/06/26 10:12:38;;;;;;;6.22;5.93;;;29.30;48.50;;;;;;6235465;28;20331;-76
2023/06/26 10:15:45;;;;;;;7.10;6.75;;;29.30;47.90;;;;;;6236358;28;20729;-76
2023/06/26 10:18:50;;;;;;;7.03;6.63;;;29.30;49.10;;;;;;6234062;28;20422;-77
2023/06/26 10:21:53;;;;;;;6.07;5.70;;;29.40;47.20;;;;;;6247931;28;20292;-76
2023/06/26 10:25:00;;;;;;;5.57;5.38;;;29.40;48.20;;;;;;6245232;28;20234;-75
2023/06/26 10:28:05;;;;;;;4.50;4.30;;;29.40;48.50;;;;;;6239106;28;20308;-76
2023/06/26 10:31:10;;;;;;;5.53;5.32;;;29.40;46.50;;;;;;6237779;28;20240;-76
2023/06/26 10:34:14;;;;;;;5.40;5.10;;;29.40;45.70;;;;;;6222376;28;20280;-75
2023/06/26 10:37:17;;;;;;;5.25;5.10;;;29.30;47.20;;;;;;6224283;28;20376;-76
2023/06/26 10:40:26;;;;;;;5.57;5.07;;;29.50;47.00;;;;;;6237744;28;20324;-75
2023/06/26 10:43:32;;;;;;;5.72;5.53;;;29.50;46.10;;;;;;6228627;28;20251;-76
2023/06/26 10:46:48;;;;;;;5.67;5.37;;;29.30;47.10;;;;;;6226945;28;20778;-75
2023/06/26 10:49:51;;;;;;;5.25;5.05;;;29.50;47.10;;;;;;6232313;28;20235;-76
2023/06/26 10:53:18;;;;;;;6.13;5.65;;;29.60;47.70;;;;;;6234101;28;20226;-78
2023/06/26 10:56:21;;;;;;;5.53;5.32;;;29.70;46.70;;;;;;6233044;28;20319;-76
2023/06/26 10:59:27;;;;;;;5.50;5.30;;;29.70;46.80;;;;;;6226884;28;20725;-76
2023/06/26 11:02:49;;;;;;;5.45;5.07;;;29.80;46.70;;;;;;6227872;28;20235;-77
2023/06/26 11:06:10;;;;;;;5.65;5.40;;;30.00;46.70;;;;;;6228607;28;20386;-77
2023/06/26 11:09:16;;;;;;;5.25;4.93;;;29.90;46.50;;;;;;6237355;28;20610;-75
2023/06/26 11:12:36;;;;;;;6.35;5.93;;;30.00;47.20;;;;;;6225189;28;20278;-76
2023/06/26 11:15:43;;;;;;;5.57;5.25;;;30.10;46.70;;;;;;6235117;28;20235;-75
2023/06/26 11:18:46;;;;;;;5.30;5.10;;;30.10;47.30;;;;;;6237351;28;20227;-75
2023/06/26 11:21:50;;;;;;;5.07;4.78;;;30.20;46.50;;;;;;6234129;28;20261;-74
2023/06/26 11:24:56;;;;;;;4.43;4.32;;;30.30;46.30;;;;;;6228868;28;20954;-76
2023/06/26 11:27:59;;;;;;;5.47;5.22;;;30.50;46.20;;;;;;6234466;28;20230;-76
2023/06/26 11:31:03;;;;;;;5.50;5.30;;;30.30;45.70;;;;;;6223195;28;20781;-77
2023/06/26 11:34:09;;;;;;;4.93;4.72;;;30.30;46.60;;;;;;6232569;28;20231;-75
2023/06/26 11:37:12;;;;;;;4.30;4.20;;;30.30;46.80;;;;;;6234148;28;20227;-75
2023/06/26 11:40:19;;;;;;;6.00;5.60;;;30.50;45.70;;;;;;6230549;28;20242;-76
2023/06/26 11:43:23;;;;;;;5.75;5.40;;;30.60;46.60;;;;;;6238565;28;20242;-79
2023/06/26 11:46:28;;;;;;;5.60;5.28;;;30.60;46.40;;;;;;6235275;28;20250;-77
2023/06/26 11:49:32;;;;;;;5.57;5.38;;;30.70;46.30;;;;;;6237303;28;20235;-81
2023/06/26 11:52:35;;;;;;;6.00;5.75;;;30.80;45.60;;;;;;6234664;28;20752;-81
2023/06/26 11:55:43;;;;;;;5.93;5.72;;;30.60;44.80;;;;;;6226801;28;20629;-79
2023/06/26 11:59:02;;;;;;;6.35;5.88;;;30.60;45.70;;;;;;6228874;28;20234;-80
2023/06/26 12:02:12;;;;;;;5.47;5.18;;;30.60;44.70;;;;;;6236667;28;20243;-81
2023/06/26 12:05:16;;;;;;;6.05;5.60;;;30.70;45.40;;;;;;6235758;28;20310;-78
2023/06/26 12:08:20;;;;;;;6.53;5.50;;;30.80;45.90;;;;;;6226974;28;20235;-78
2023/06/26 12:11:24;;;;;;;5.90;5.50;;;30.90;44.90;;;;;;6224547;28;20242;-78
2023/06/26 12:14:30;;;;;;;5.47;5.22;;;30.80;45.80;;;;;;6231855;28;20238;-78
2023/06/26 12:17:38;;;;;;;5.65;5.28;;;30.90;46.30;;;;;;6236255;28;20929;-79
2023/06/26 12:20:41;;;;;;;6.95;5.75;;;31.00;45.50;;;;;;6236015;28;20233;-78
2023/06/26 12:23:44;;;;;;;6.10;5.53;;;31.20;45.00;;;;;;6238579;28;20730;-78
2023/06/26 12:26:51;;;;;;;5.85;5.60;;;31.30;44.80;;;;;;6237046;28;20234;-78
2023/06/26 12:29:55;;;;;;;6.13;5.72;;;31.40;45.10;;;;;;6241928;28;20798;-79
2023/06/26 12:33:00;;;;;;;8.60;6.05;;;31.40;45.40;;;;;;6228974;28;20239;-78
2023/06/26 12:36:03;;;;;;;5.28;5.05;;;31.40;44.80;;;;;;6233435;28;20712;-78
2023/06/26 12:39:06;;;;;;;6.60;5.70;;;31.40;45.60;;;;;;6233239;28;20315;-79
2023/06/26 12:42:09;;;;;;;5.63;5.43;;;31.60;44.60;;;;;;6225200;28;20793;-78
2023/06/26 12:45:14;;;;;;;6.05;5.80;;;31.80;44.30;;;;;;6245991;28;20226;-78
2023/06/26 12:48:43;;;;;;;5.90;5.50;;;31.90;43.80;;;;;;6241492;28;20468;-77
2023/06/26 12:51:47;;;;;;;6.28;5.90;;;31.70;43.40;;;;;;6238350;28;20245;-79
2023/06/26 12:54:53;;;;;;;6.95;6.57;;;31.80;44.00;;;;;;6235985;28;20238;-78
2023/06/26 12:57:56;;;;;;;7.10;6.78;;;31.70;44.00;;;;;;6238025;28;20227;-79
2023/06/26 13:01:01;;;;;;;6.40;6.07;;;31.80;43.90;;;;;;6259497;28;20230;-77
2023/06/26 13:04:08;;;;;;;6.07;5.78;;;31.90;43.30;;;;;;6260714;28;20251;-78
2023/06/26 13:07:11;;;;;;;6.60;6.10;;;32.00;43.70;;;;;;6251962;28;20226;-80
2023/06/26 13:10:15;;;;;;;8.45;6.22;;;31.90;44.60;;;;;;6272499;28;20238;-77
2023/06/26 13:13:18;;;;;;;6.93;6.50;;;31.80;44.20;;;;;;6256600;28;20295;-79
2023/06/26 13:16:22;;;;;;;7.43;7.03;;;31.60;44.00;;;;;;6265488;28;20718;-79
2023/06/26 13:19:26;;;;;;;7.18;6.70;;;31.50;44.30;;;;;;6257549;28;20311;-78
2023/06/26 13:22:29;;;;;;;7.55;6.85;;;31.20;44.80;;;;;;6263812;28;20327;-79
2023/06/26 13:25:32;;;;;;;8.32;7.47;;;31.10;45.70;;;;;;6256210;28;20254;-78
2023/06/26 13:28:35;;;;;;;7.18;6.78;;;30.80;45.20;;;;;;6255893;28;20246;-77
2023/06/26 13:31:38;;;;;;;8.00;7.40;;;30.50;45.70;;;;;;6257327;28;20233;-79
2023/06/26 13:34:44;;;;;;;8.57;7.78;;;30.20;46.50;;;;;;6271838;28;20239;-78
2023/06/26 13:37:47;;;;;;;7.82;7.22;;;30.10;46.50;;;;;;6261504;28;20229;-77
2023/06/26 13:40:52;;;;;;;7.43;6.93;;;30.00;46.40;;;;;;6255241;28;20253;-78
2023/06/26 13:43:55;;;;;;;8.10;7.20;;;29.90;46.70;;;;;;6242516;28;20237;-77
2023/06/26 13:47:14;;;;;;;8.05;7.30;;;29.70;47.40;;;;;;6256321;28;20231;-78
2023/06/26 13:50:19;;;;;;;8.35;7.68;;;29.70;47.10;;;;;;6255603;28;20325;-78
2023/06/26 13:53:22;;;;;;;7.57;7.07;;;29.70;47.60;;;;;;6257574;28;20243;-75
2023/06/26 13:56:27;;;;;;;7.70;7.30;;;29.70;47.60;;;;;;6253789;28;20852;-79
2023/06/26 13:59:30;;;;;;;8.05;7.55;;;29.70;48.00;;;;;;6258970;28;20260;-79
2023/06/26 14:02:33;;;;;;;7.60;7.07;;;29.70;47.50;;;;;;6260434;28;20242;-79
2023/06/26 14:05:38;;;;;;;8.52;7.88;;;29.80;47.30;;;;;;6260262;28;20412;-78
2023/06/26 14:08:44;;;;;;;8.05;7.28;;;29.70;47.80;;;;;;6257208;28;20233;-78
2023/06/26 14:11:48;;;;;;;8.43;7.80;;;29.70;48.20;;;;;;6263712;28;20324;-77
2023/06/26 14:14:51;;;;;;;8.50;7.90;;;29.50;48.40;;;;;;6266167;28;20242;-80
2023/06/26 14:17:55;;;;;;;8.30;7.60;;;29.30;48.30;;;;;;6264618;28;20230;-78
2023/06/26 14:21:01;;;;;;;8.60;7.97;;;29.20;48.20;;;;;;6257849;28;20245;-78
2023/06/26 14:24:04;;;;;;;8.43;7.15;;;29.00;48.50;;;;;;6246374;28;20237;-77
2023/06/26 14:27:07;;;;;;;15.90;7.17;;;28.50;50.50;;;;;;6248684;28;20737;-78
2023/06/26 14:30:11;;;;;;;21.73;8.53;;;27.70;54.50;;;;;;6228162;28;20316;-80
2023/06/26 14:33:15;;;;;;;7.53;6.03;;;26.20;61.50;;;;;;6240033;28;20230;-84
2023/06/26 14:36:25;;;;;;;6.67;5.90;;;24.50;65.40;;;;;;6266930;28;20237;-83
2023/06/26 14:39:28;;;;;;;9.77;6.73;;;23.30;68.40;;;;;;6259302;28;20303;-83
2023/06/26 14:42:31;;;;;;;7.43;6.03;;;21.90;71.90;;;;;;6252185;28;20230;-83
2023/06/26 14:45:36;;;;;;;6.27;5.77;;;21.30;73.30;;;;;;6253257;28;20230;-84
2023/06/26 14:48:39;;;;;;;6.43;5.97;;;20.90;74.20;;;;;;6254685;28;20226;-83
2023/06/26 14:51:43;;;;;;;6.27;5.87;;;20.60;75.30;;;;;;6256611;28;20601;-83
2023/06/26 14:54:46;;;;;;;6.53;6.03;;;20.50;75.70;;;;;;6254454;28;20245;-83
2023/06/26 14:57:50;;;;;;;6.80;6.20;;;20.50;75.90;;;;;;6255373;28;20234;-82
2023/06/26 15:00:53;;;;;;;8.33;7.53;;;20.50;76.70;;;;;;6259711;28;20599;-84
2023/06/26 15:03:56;;;;;;;14.13;10.13;;;20.40;77.70;;;;;;6257972;28;20230;-82
2023/06/26 15:07:01;;;;;;;14.23;13.03;;;20.30;78.70;;;;;;6257364;28;20312;-83
2023/06/26 15:10:06;;;;;;;15.97;13.27;;;20.30;79.70;;;;;;6252871;28;20239;-81
2023/06/26 15:13:09;;;;;;;14.60;13.10;;;20.30;80.20;;;;;;6255778;28;20296;-84
2023/06/26 15:16:12;;;;;;;14.07;12.63;;;20.30;80.10;;;;;;6257403;28;20239;-82
2023/06/26 15:19:15;;;;;;;11.30;10.40;;;20.30;80.40;;;;;;6252647;28;20240;-83
2023/06/26 15:22:23;;;;;;;12.00;10.87;;;20.30;80.40;;;;;;6252225;28;20265;-83
2023/06/26 15:25:28;;;;;;;8.60;8.00;;;20.30;80.00;;;;;;6260306;28;20246;-81
2023/06/26 15:28:31;;;;;;;8.00;7.50;;;20.30;79.90;;;;;;6252461;28;20242;-83
2023/06/26 15:31:34;;;;;;;7.33;6.73;;;20.20;79.80;;;;;;6248265;28;20775;-81
2023/06/26 15:34:38;;;;;;;7.80;7.20;;;20.10;79.40;;;;;;6260223;28;20724;-83
2023/06/26 15:37:42;;;;;;;7.00;6.60;;;20.10;79.00;;;;;;6250667;28;20231;-78
2023/06/26 15:40:45;;;;;;;7.07;6.57;;;20.20;78.50;;;;;;6253406;28;20234;-84
2023/06/26 15:43:48;;;;;;;8.03;7.43;;;20.20;78.20;;;;;;6244035;28;20245;-85
2023/06/26 15:46:52;;;;;;;7.63;7.23;;;20.30;77.70;;;;;;6249014;28;20241;-85
2023/06/26 15:49:55;;;;;;;8.13;7.50;;;20.30;77.70;;;;;;6253896;28;20740;-85
2023/06/26 15:53:00;;;;;;;8.33;7.93;;;20.50;77.70;;;;;;6260746;28;20396;-82